sensor_id;sensor_type;location;lat;lon;timestamp;pressure;altitude;pressure_sealevel;temperature;humidity
67345;BME280;54230;52.402;6.276;2023-03-18T00:00:00;100750.0;;;15.1;55.8
67345;BME280;54230;52.402;6.276;2023-03-18T00:05:00;100750.0;;;15.1;55.7
67345;BME280;54230;52.402;6.276;2023-03-18T00:10:00;100750.0;;;15.0;55.8
67345;BME280;54230;52.402;6.276;2023-03-18T00:15:00;100740.0;;;15.1;55.8
67345;BME280;54230;52.402;6.276;2023-03-18T00:20:00;100740.0;;;15.1;56.0
67345;BME280;54230;52.402;6.276;2023-03-18T00:25:00;100740.0;;;15.0;55.5
67345;BME280;54230;52.402;6.276;2023-03-18T00:30:00;100740.0;;;15.0;55.5
67345;BME280;54230;52.402;6.276;2023-03-18T00:35:00;100750.0;;;15.0;56.1
67345;BME280;54230;52.402;6.276;2023-03-18T00:40:03;100750.0;;;14.7;56.3
67345;BME280;54230;52.402;6.276;2023-03-18T00:45:00;100760.0;;;14.6;57.3
67345;BME280;54230;52.402;6.276;2023-03-18T00:50:00;100760.0;;;14.4;57.4
67345;BME280;54230;52.402;6.276;2023-03-18T00:55:00;100760.0;;;14.4;57.6
67345;BME280;54230;52.402;6.276;2023-03-18T01:00:00;100770.0;;;14.2;57.9
67345;BME280;54230;52.402;6.276;2023-03-18T01:05:00;100780.0;;;14.1;58.8
67345;BME280;54230;52.402;6.276;2023-03-18T01:10:00;100770.0;;;14.2;59.0
67345;BME280;54230;52.402;6.276;2023-03-18T01:15:00;100780.0;;;14.2;58.8
67345;BME280;54230;52.402;6.276;2023-03-18T01:20:00;100790.0;;;14.2;58.9
67345;BME280;54230;52.402;6.276;2023-03-18T01:25:00;100790.0;;;14.1;59.1
67345;BME280;54230;52.402;6.276;2023-03-18T01:30:00;100790.0;;;14.1;59.3
67345;BME280;54230;52.402;6.276;2023-03-18T01:35:00;100790.0;;;14.0;59.5
67345;BME280;54230;52.402;6.276;2023-03-18T01:40:00;100790.0;;;14.0;60.1
67345;BME280;54230;52.402;6.276;2023-03-18T01:45:11;100780.0;;;14.1;60.4
67345;BME280;54230;52.402;6.276;2023-03-18T01:50:00;100780.0;;;14.2;60.7
67345;BME280;54230;52.402;6.276;2023-03-18T01:55:03;100780.0;;;14.2;60.6
67345;BME280;54230;52.402;6.276;2023-03-18T02:00:00;100790.0;;;14.2;60.8
67345;BME280;54230;52.402;6.276;2023-03-18T02:05:01;100780.0;;;14.1;61.4
67345;BME280;54230;52.402;6.276;2023-03-18T02:10:02;100790.0;;;14.1;61.9
67345;BME280;54230;52.402;6.276;2023-03-18T02:15:01;100790.0;;;14.1;61.9
67345;BME280;54230;52.402;6.276;2023-03-18T02:20:09;100790.0;;;14.1;61.7
67345;BME280;54230;52.402;6.276;2023-03-18T02:25:14;100790.0;;;14.1;61.6
67345;BME280;54230;52.402;6.276;2023-03-18T02:30:05;100790.0;;;14.1;61.9
67345;BME280;54230;52.402;6.276;2023-03-18T02:35:03;100790.0;;;14.1;62.0
67345;BME280;54230;52.402;6.276;2023-03-18T02:40:11;100800.0;;;14.1;61.9
67345;BME280;54230;52.402;6.276;2023-03-18T02:45:00;100800.0;;;14.1;62.1
67345;BME280;54230;52.402;6.276;2023-03-18T02:50:00;100800.0;;;14.1;62.5
67345;BME280;54230;52.402;6.276;2023-03-18T02:55:00;100810.0;;;14.1;63.0
67345;BME280;54230;52.402;6.276;2023-03-18T03:00:00;100810.0;;;14.0;63.0
67345;BME280;54230;52.402;6.276;2023-03-18T03:05:00;100810.0;;;13.9;63.5
67345;BME280;54230;52.402;6.276;2023-03-18T03:10:00;100820.0;;;13.9;63.9
67345;BME280;54230;52.402;6.276;2023-03-18T03:15:00;100820.0;;;13.8;64.2
67345;BME280;54230;52.402;6.276;2023-03-18T03:20:00;100830.0;;;13.7;64.5
67345;BME280;54230;52.402;6.276;2023-03-18T03:25:00;100830.0;;;13.7;64.9
67345;BME280;54230;52.402;6.276;2023-03-18T03:30:00;100830.0;;;13.6;65.0
67345;BME280;54230;52.402;6.276;2023-03-18T03:35:00;100830.0;;;13.5;65.2
67345;BME280;54230;52.402;6.276;2023-03-18T03:40:00;100830.0;;;13.5;65.9
67345;BME280;54230;52.402;6.276;2023-03-18T03:45:00;100840.0;;;13.4;65.8
67345;BME280;54230;52.402;6.276;2023-03-18T03:50:00;100840.0;;;13.4;66.0
67345;BME280;54230;52.402;6.276;2023-03-18T03:55:00;100840.0;;;13.4;66.3
67345;BME280;54230;52.402;6.276;2023-03-18T04:00:00;100840.0;;;13.4;66.5
67345;BME280;54230;52.402;6.276;2023-03-18T04:05:00;100850.0;;;13.4;66.7
67345;BME280;54230;52.402;6.276;2023-03-18T04:10:00;100850.0;;;13.4;67.0
67345;BME280;54230;52.402;6.276;2023-03-18T04:15:00;100860.0;;;13.4;67.4
67345;BME280;54230;52.402;6.276;2023-03-18T04:20:00;100860.0;;;13.4;67.1
67345;BME280;54230;52.402;6.276;2023-03-18T04:25:00;100860.0;;;13.5;66.9
67345;BME280;54230;52.402;6.276;2023-03-18T04:30:00;100860.0;;;13.7;66.8
67345;BME280;54230;52.402;6.276;2023-03-18T04:35:00;100870.0;;;13.6;66.7
67345;BME280;54230;52.402;6.276;2023-03-18T04:40:00;100870.0;;;13.6;66.8
67345;BME280;54230;52.402;6.276;2023-03-18T04:45:00;100870.0;;;13.5;67.0
67345;BME280;54230;52.402;6.276;2023-03-18T04:50:00;100870.0;;;13.5;67.3
67345;BME280;54230;52.402;6.276;2023-03-18T04:55:00;100870.0;;;13.5;67.8
67345;BME280;54230;52.402;6.276;2023-03-18T05:00:00;100870.0;;;13.5;68.2
67345;BME280;54230;52.402;6.276;2023-03-18T05:05:00;100880.0;;;13.5;68.8
67345;BME280;54230;52.402;6.276;2023-03-18T05:10:00;100880.0;;;13.5;69.6
67345;BME280;54230;52.402;6.276;2023-03-18T05:15:00;100880.0;;;13.5;70.3
67345;BME280;54230;52.402;6.276;2023-03-18T05:20:00;100880.0;;;13.4;70.9
67345;BME280;54230;52.402;6.276;2023-03-18T05:25:00;100870.0;;;13.3;71.8
67345;BME280;54230;52.402;6.276;2023-03-18T05:30:00;100870.0;;;13.4;72.2
67345;BME280;54230;52.402;6.276;2023-03-18T05:35:00;100880.0;;;13.3;72.7
67345;BME280;54230;52.402;6.276;2023-03-18T05:40:00;100880.0;;;13.3;73.4
67345;BME280;54230;52.402;6.276;2023-03-18T05:45:00;100890.0;;;13.3;73.7
67345;BME280;54230;52.402;6.276;2023-03-18T05:50:00;100890.0;;;13.1;75.0
67345;BME280;54230;52.402;6.276;2023-03-18T05:55:00;100900.0;;;13.1;75.8
67345;BME280;54230;52.402;6.276;2023-03-18T06:00:00;100910.0;;;13.1;76.8
67345;BME280;54230;52.402;6.276;2023-03-18T06:05:00;100910.0;;;13.1;77.3
67345;BME280;54230;52.402;6.276;2023-03-18T06:10:00;100910.0;;;13.2;77.5
67345;BME280;54230;52.402;6.276;2023-03-18T06:15:00;100920.0;;;13.1;78.3
67345;BME280;54230;52.402;6.276;2023-03-18T06:20:00;100920.0;;;13.1;78.8
67345;BME280;54230;52.402;6.276;2023-03-18T06:25:00;100920.0;;;13.2;79.2
67345;BME280;54230;52.402;6.276;2023-03-18T06:30:00;100930.0;;;13.2;79.4
67345;BME280;54230;52.402;6.276;2023-03-18T06:35:00;100930.0;;;13.1;79.8
67345;BME280;54230;52.402;6.276;2023-03-18T06:40:00;100940.0;;;13.2;80.1
67345;BME280;54230;52.402;6.276;2023-03-18T06:45:00;100950.0;;;13.2;80.5
67345;BME280;54230;52.402;6.276;2023-03-18T06:50:00;100970.0;;;13.2;81.0
67345;BME280;54230;52.402;6.276;2023-03-18T06:55:00;100980.0;;;13.3;81.1
67345;BME280;54230;52.402;6.276;2023-03-18T07:00:00;100990.0;;;13.2;81.6
67345;BME280;54230;52.402;6.276;2023-03-18T07:05:00;100990.0;;;13.2;82.3
67345;BME280;54230;52.402;6.276;2023-03-18T07:10:00;100990.0;;;13.3;82.3
67345;BME280;54230;52.402;6.276;2023-03-18T07:15:00;100990.0;;;13.3;82.8
67345;BME280;54230;52.402;6.276;2023-03-18T07:20:00;100990.0;;;13.5;82.7
67345;BME280;54230;52.402;6.276;2023-03-18T07:25:00;100990.0;;;13.7;82.9
67345;BME280;54230;52.402;6.276;2023-03-18T07:30:00;100990.0;;;14.0;82.8
67345;BME280;54230;52.402;6.276;2023-03-18T07:35:00;101000.0;;;14.2;83.2
67345;BME280;54230;52.402;6.276;2023-03-18T07:40:00;101000.0;;;14.6;83.8
67345;BME280;54230;52.402;6.276;2023-03-18T07:45:00;101020.0;;;14.6;82.3
67345;BME280;54230;52.402;6.276;2023-03-18T07:50:00;101030.0;;;14.6;81.8
67345;BME280;54230;52.402;6.276;2023-03-18T07:55:00;101020.0;;;15.0;80.9
67345;BME280;54230;52.402;6.276;2023-03-18T08:00:00;101030.0;;;15.4;80.3
67345;BME280;54230;52.402;6.276;2023-03-18T08:05:00;101030.0;;;15.5;78.8
67345;BME280;54230;52.402;6.276;2023-03-18T08:10:00;101020.0;;;15.9;75.7
67345;BME280;54230;52.402;6.276;2023-03-18T08:15:00;101030.0;;;15.8;75.0
67345;BME280;54230;52.402;6.276;2023-03-18T08:20:00;101030.0;;;15.9;74.1
67345;BME280;54230;52.402;6.276;2023-03-18T08:25:00;101030.0;;;15.7;73.3
67345;BME280;54230;52.402;6.276;2023-03-18T08:30:00;101030.0;;;15.7;73.5
67345;BME280;54230;52.402;6.276;2023-03-18T08:35:00;101030.0;;;15.7;73.5
67345;BME280;54230;52.402;6.276;2023-03-18T08:40:00;101040.0;;;15.7;73.4
67345;BME280;54230;52.402;6.276;2023-03-18T08:45:00;101050.0;;;15.8;73.1
67345;BME280;54230;52.402;6.276;2023-03-18T08:50:00;101050.0;;;15.9;72.1
67345;BME280;54230;52.402;6.276;2023-03-18T08:55:00;101060.0;;;15.9;71.6
67345;BME280;54230;52.402;6.276;2023-03-18T09:00:00;101070.0;;;15.8;71.4
67345;BME280;54230;52.402;6.276;2023-03-18T09:05:00;101080.0;;;15.8;71.4
67345;BME280;54230;52.402;6.276;2023-03-18T09:10:00;101080.0;;;15.8;71.0
67345;BME280;54230;52.402;6.276;2023-03-18T09:15:00;101070.0;;;16.0;70.1
67345;BME280;54230;52.402;6.276;2023-03-18T09:20:00;101060.0;;;16.3;69.8
67345;BME280;54230;52.402;6.276;2023-03-18T09:25:00;101070.0;;;16.6;69.0
67345;BME280;54230;52.402;6.276;2023-03-18T09:30:00;101060.0;;;16.9;67.6
67345;BME280;54230;52.402;6.276;2023-03-18T09:35:00;101060.0;;;17.0;66.5
67345;BME280;54230;52.402;6.276;2023-03-18T09:40:00;101070.0;;;17.2;64.2
67345;BME280;54230;52.402;6.276;2023-03-18T09:45:03;101080.0;;;17.0;63.6
67345;BME280;54230;52.402;6.276;2023-03-18T09:50:11;101080.0;;;16.8;62.9
67345;BME280;54230;52.402;6.276;2023-03-18T09:55:02;101080.0;;;17.0;63.4
67345;BME280;54230;52.402;6.276;2023-03-18T10:00:04;101080.0;;;17.5;62.7
67345;BME280;54230;52.402;6.276;2023-03-18T10:05:03;101080.0;;;17.6;60.6
67345;BME280;54230;52.402;6.276;2023-03-18T10:10:05;101080.0;;;17.7;59.8
67345;BME280;54230;52.402;6.276;2023-03-18T10:15:09;101080.0;;;17.7;60.3
67345;BME280;54230;52.402;6.276;2023-03-18T10:20:02;101090.0;;;17.9;59.9
67345;BME280;54230;52.402;6.276;2023-03-18T10:25:05;101090.0;;;18.0;60.1
67345;BME280;54230;52.402;6.276;2023-03-18T10:30:04;101090.0;;;18.4;59.0
67345;BME280;54230;52.402;6.276;2023-03-18T10:35:07;101090.0;;;18.7;57.8
67345;BME280;54230;52.402;6.276;2023-03-18T10:40:01;101090.0;;;18.8;57.4
67345;BME280;54230;52.402;6.276;2023-03-18T10:45:07;101090.0;;;19.1;56.8
67345;BME280;54230;52.402;6.276;2023-03-18T10:50:02;101090.0;;;19.0;55.9
67345;BME280;54230;52.402;6.276;2023-03-18T10:55:00;101080.0;;;19.1;55.4
67345;BME280;54230;52.402;6.276;2023-03-18T11:00:00;101090.0;;;19.1;55.4
67345;BME280;54230;52.402;6.276;2023-03-18T11:05:03;101090.0;;;19.4;55.2
67345;BME280;54230;52.402;6.276;2023-03-18T11:10:11;101090.0;;;19.5;53.9
67345;BME280;54230;52.402;6.276;2023-03-18T11:15:00;101090.0;;;19.7;53.9
67345;BME280;54230;52.402;6.276;2023-03-18T11:20:02;101080.0;;;20.0;52.7
67345;BME280;54230;52.402;6.276;2023-03-18T11:25:02;101080.0;;;20.1;51.9
67345;BME280;54230;52.402;6.276;2023-03-18T11:30:08;101090.0;;;20.2;51.6
67345;BME280;54230;52.402;6.276;2023-03-18T11:35:03;101080.0;;;19.6;52.2
67345;BME280;54230;52.402;6.276;2023-03-18T11:40:18;101070.0;;;19.5;53.3
67345;BME280;54230;52.402;6.276;2023-03-18T11:45:01;101070.0;;;19.6;53.7
67345;BME280;54230;52.402;6.276;2023-03-18T11:50:01;101080.0;;;19.8;52.9
67345;BME280;54230;52.402;6.276;2023-03-18T11:55:06;101080.0;;;19.8;53.2
67345;BME280;54230;52.402;6.276;2023-03-18T12:00:10;101080.0;;;20.1;52.6
67345;BME280;54230;52.402;6.276;2023-03-18T12:05:18;101090.0;;;20.4;51.5
67345;BME280;54230;52.402;6.276;2023-03-18T12:10:05;101080.0;;;20.7;50.2
67345;BME280;54230;52.402;6.276;2023-03-18T12:15:04;101070.0;;;20.9;50.0
67345;BME280;54230;52.402;6.276;2023-03-18T12:25:09;101070.0;;;21.0;49.2
67345;BME280;54230;52.402;6.276;2023-03-18T12:30:06;101070.0;;;20.9;49.3
67345;BME280;54230;52.402;6.276;2023-03-18T12:35:17;101070.0;;;20.6;49.9
67345;BME280;54230;52.402;6.276;2023-03-18T12:40:07;101060.0;;;20.5;49.6
67345;BME280;54230;52.402;6.276;2023-03-18T12:45:01;101060.0;;;20.6;49.1
67345;BME280;54230;52.402;6.276;2023-03-18T12:50:04;101050.0;;;21.2;47.9
67345;BME280;54230;52.402;6.276;2023-03-18T12:55:03;101050.0;;;21.4;47.1
67345;BME280;54230;52.402;6.276;2023-03-18T13:00:02;101040.0;;;21.3;46.7
67345;BME280;54230;52.402;6.276;2023-03-18T13:05:03;101040.0;;;21.0;46.2
67345;BME280;54230;52.402;6.276;2023-03-18T13:10:04;101050.0;;;21.0;46.3
67345;BME280;54230;52.402;6.276;2023-03-18T13:15:03;101050.0;;;20.9;46.2
67345;BME280;54230;52.402;6.276;2023-03-18T13:20:03;101050.0;;;20.9;45.9
67345;BME280;54230;52.402;6.276;2023-03-18T13:25:05;101050.0;;;20.6;46.6
67345;BME280;54230;52.402;6.276;2023-03-18T13:30:03;101050.0;;;20.8;46.9
67345;BME280;54230;52.402;6.276;2023-03-18T13:35:14;101050.0;;;21.0;46.1
67345;BME280;54230;52.402;6.276;2023-03-18T13:40:15;101040.0;;;21.3;45.7
67345;BME280;54230;52.402;6.276;2023-03-18T13:45:03;101030.0;;;21.2;45.6
67345;BME280;54230;52.402;6.276;2023-03-18T13:50:03;101040.0;;;21.3;45.1
67345;BME280;54230;52.402;6.276;2023-03-18T13:55:03;101040.0;;;21.0;45.2
67345;BME280;54230;52.402;6.276;2023-03-18T14:00:11;101040.0;;;21.0;45.7
67345;BME280;54230;52.402;6.276;2023-03-18T14:05:00;101030.0;;;20.9;46.4
67345;BME280;54230;52.402;6.276;2023-03-18T14:10:14;101030.0;;;20.6;46.6
67345;BME280;54230;52.402;6.276;2023-03-18T14:15:01;101040.0;;;20.4;47.5
67345;BME280;54230;52.402;6.276;2023-03-18T14:20:05;101040.0;;;20.0;48.9
67345;BME280;54230;52.402;6.276;2023-03-18T14:25:09;101030.0;;;20.0;49.6
67345;BME280;54230;52.402;6.276;2023-03-18T14:35:20;101030.0;;;19.8;49.6
67345;BME280;54230;52.402;6.276;2023-03-18T14:40:04;101030.0;;;19.6;50.2
67345;BME280;54230;52.402;6.276;2023-03-18T14:45:04;101030.0;;;19.5;50.5
67345;BME280;54230;52.402;6.276;2023-03-18T14:50:03;101020.0;;;19.4;50.9
67345;BME280;54230;52.402;6.276;2023-03-18T14:55:03;101020.0;;;19.4;52.1
67345;BME280;54230;52.402;6.276;2023-03-18T15:00:00;101030.0;;;19.3;52.1
67345;BME280;54230;52.402;6.276;2023-03-18T15:05:00;101020.0;;;19.2;52.0
67345;BME280;54230;52.402;6.276;2023-03-18T15:10:05;101020.0;;;19.2;53.1
67345;BME280;54230;52.402;6.276;2023-03-18T15:15:00;101060.0;;;18.5;55.9
67345;BME280;54230;52.402;6.276;2023-03-18T15:20:00;101050.0;;;17.8;60.9
67345;BME280;54230;52.402;6.276;2023-03-18T15:25:02;101040.0;;;17.2;63.6
67345;BME280;54230;52.402;6.276;2023-03-18T15:30:03;101030.0;;;17.0;65.6
67345;BME280;54230;52.402;6.276;2023-03-18T15:35:10;101030.0;;;17.0;66.5
67345;BME280;54230;52.402;6.276;2023-03-18T15:40:14;101030.0;;;17.0;67.3
67345;BME280;54230;52.402;6.276;2023-03-18T15:45:02;101030.0;;;17.1;67.6
67345;BME280;54230;52.402;6.276;2023-03-18T15:50:13;101030.0;;;17.2;68.1
67345;BME280;54230;52.402;6.276;2023-03-18T15:55:00;101020.0;;;17.3;66.5
67345;BME280;54230;52.402;6.276;2023-03-18T16:00:00;101030.0;;;17.4;68.1
67345;BME280;54230;52.402;6.276;2023-03-18T16:05:04;101020.0;;;17.5;65.5
67345;BME280;54230;52.402;6.276;2023-03-18T16:10:00;101030.0;;;17.7;65.6
67345;BME280;54230;52.402;6.276;2023-03-18T16:15:01;101030.0;;;17.8;64.6
67345;BME280;54230;52.402;6.276;2023-03-18T16:20:00;101020.0;;;18.0;63.7
67345;BME280;54230;52.402;6.276;2023-03-18T16:25:00;101030.0;;;18.3;62.4
67345;BME280;54230;52.402;6.276;2023-03-18T16:30:00;101020.0;;;18.4;65.2
67345;BME280;54230;52.402;6.276;2023-03-18T16:35:00;101030.0;;;18.4;66.1
67345;BME280;54230;52.402;6.276;2023-03-18T16:40:00;101030.0;;;18.4;66.2
67345;BME280;54230;52.402;6.276;2023-03-18T16:45:00;101030.0;;;18.3;65.4
67345;BME280;54230;52.402;6.276;2023-03-18T16:50:00;101030.0;;;18.5;65.2
67345;BME280;54230;52.402;6.276;2023-03-18T16:55:01;101030.0;;;18.5;64.7
67345;BME280;54230;52.402;6.276;2023-03-18T17:00:00;101030.0;;;18.5;64.0
67345;BME280;54230;52.402;6.276;2023-03-18T17:05:00;101030.0;;;18.5;63.2
67345;BME280;54230;52.402;6.276;2023-03-18T17:10:00;101030.0;;;18.3;62.9
67345;BME280;54230;52.402;6.276;2023-03-18T17:15:01;101040.0;;;18.0;63.5
67345;BME280;54230;52.402;6.276;2023-03-18T17:20:01;101040.0;;;17.8;64.3
67345;BME280;54230;52.402;6.276;2023-03-18T17:25:00;101040.0;;;17.8;64.5
67345;BME280;54230;52.402;6.276;2023-03-18T17:30:00;101040.0;;;17.6;64.5
67345;BME280;54230;52.402;6.276;2023-03-18T17:35:00;101040.0;;;17.5;65.1
67345;BME280;54230;52.402;6.276;2023-03-18T17:40:00;101040.0;;;17.3;65.3
67345;BME280;54230;52.402;6.276;2023-03-18T17:45:07;101040.0;;;17.1;65.9
67345;BME280;54230;52.402;6.276;2023-03-18T17:50:00;101040.0;;;17.0;66.3
67345;BME280;54230;52.402;6.276;2023-03-18T17:55:00;101040.0;;;16.9;66.5
67345;BME280;54230;52.402;6.276;2023-03-18T18:00:00;101040.0;;;16.7;66.9
67345;BME280;54230;52.402;6.276;2023-03-18T18:05:00;101040.0;;;16.7;67.0
67345;BME280;54230;52.402;6.276;2023-03-18T18:10:00;101040.0;;;16.7;66.8
67345;BME280;54230;52.402;6.276;2023-03-18T18:15:00;101040.0;;;16.7;66.3
67345;BME280;54230;52.402;6.276;2023-03-18T18:20:00;101050.0;;;16.6;65.7
67345;BME280;54230;52.402;6.276;2023-03-18T18:25:00;101050.0;;;16.5;65.6
67345;BME280;54230;52.402;6.276;2023-03-18T18:30:00;101050.0;;;16.4;65.2
67345;BME280;54230;52.402;6.276;2023-03-18T18:35:00;101050.0;;;16.4;64.8
67345;BME280;54230;52.402;6.276;2023-03-18T18:40:00;101050.0;;;16.4;64.4
67345;BME280;54230;52.402;6.276;2023-03-18T18:45:00;101050.0;;;16.3;64.2
67345;BME280;54230;52.402;6.276;2023-03-18T18:50:00;101050.0;;;16.2;63.7
67345;BME280;54230;52.402;6.276;2023-03-18T18:55:00;101060.0;;;16.1;64.2
67345;BME280;54230;52.402;6.276;2023-03-18T19:00:00;101060.0;;;15.6;63.3
67345;BME280;54230;52.402;6.276;2023-03-18T19:05:00;101060.0;;;15.3;64.1
67345;BME280;54230;52.402;6.276;2023-03-18T19:10:00;101060.0;;;15.0;64.6
67345;BME280;54230;52.402;6.276;2023-03-18T19:15:00;101060.0;;;14.8;65.2
67345;BME280;54230;52.402;6.276;2023-03-18T19:20:00;101060.0;;;14.6;65.7
67345;BME280;54230;52.402;6.276;2023-03-18T19:25:00;101070.0;;;14.5;66.5
67345;BME280;54230;52.402;6.276;2023-03-18T19:30:00;101070.0;;;14.4;66.7
67345;BME280;54230;52.402;6.276;2023-03-18T19:35:00;101070.0;;;14.3;66.8
67345;BME280;54230;52.402;6.276;2023-03-18T19:40:01;101070.0;;;14.2;67.1
67345;BME280;54230;52.402;6.276;2023-03-18T19:45:00;101060.0;;;14.2;67.9
67345;BME280;54230;52.402;6.276;2023-03-18T19:50:00;101070.0;;;14.0;68.7
67345;BME280;54230;52.402;6.276;2023-03-18T19:55:00;101070.0;;;14.0;69.4
67345;BME280;54230;52.402;6.276;2023-03-18T20:00:00;101080.0;;;14.0;70.3
67345;BME280;54230;52.402;6.276;2023-03-18T20:05:02;101080.0;;;13.9;71.3
67345;BME280;54230;52.402;6.276;2023-03-18T20:10:00;101070.0;;;13.9;72.0
67345;BME280;54230;52.402;6.276;2023-03-18T20:15:00;101080.0;;;13.8;73.2
67345;BME280;54230;52.402;6.276;2023-03-18T20:20:00;101080.0;;;13.8;74.0
67345;BME280;54230;52.402;6.276;2023-03-18T20:25:00;101080.0;;;13.8;74.7
67345;BME280;54230;52.402;6.276;2023-03-18T20:30:00;101080.0;;;13.9;74.7
67345;BME280;54230;52.402;6.276;2023-03-18T20:35:00;101090.0;;;13.9;75.1
67345;BME280;54230;52.402;6.276;2023-03-18T20:40:01;101080.0;;;13.9;75.4
67345;BME280;54230;52.402;6.276;2023-03-18T20:45:00;101080.0;;;14.0;75.7
67345;BME280;54230;52.402;6.276;2023-03-18T20:50:00;101070.0;;;14.0;76.0
67345;BME280;54230;52.402;6.276;2023-03-18T20:55:00;101080.0;;;14.1;76.4
67345;BME280;54230;52.402;6.276;2023-03-18T21:00:00;101070.0;;;14.2;76.5
67345;BME280;54230;52.402;6.276;2023-03-18T21:05:01;101080.0;;;14.3;76.2
67345;BME280;54230;52.402;6.276;2023-03-18T21:10:00;101080.0;;;14.4;76.2
67345;BME280;54230;52.402;6.276;2023-03-18T21:15:00;101090.0;;;14.4;76.2
67345;BME280;54230;52.402;6.276;2023-03-18T21:20:00;101100.0;;;14.4;76.5
67345;BME280;54230;52.402;6.276;2023-03-18T21:25:00;101120.0;;;14.2;77.1
67345;BME280;54230;52.402;6.276;2023-03-18T21:30:00;101120.0;;;14.2;77.0
67345;BME280;54230;52.402;6.276;2023-03-18T21:35:00;101120.0;;;14.2;76.7
67345;BME280;54230;52.402;6.276;2023-03-18T21:40:00;101120.0;;;14.3;76.6
67345;BME280;54230;52.402;6.276;2023-03-18T21:45:00;101120.0;;;14.3;76.3
67345;BME280;54230;52.402;6.276;2023-03-18T21:50:00;101110.0;;;14.4;75.9
67345;BME280;54230;52.402;6.276;2023-03-18T21:55:01;101110.0;;;14.4;74.9
67345;BME280;54230;52.402;6.276;2023-03-18T22:00:00;101110.0;;;14.6;74.0
67345;BME280;54230;52.402;6.276;2023-03-18T22:05:02;101110.0;;;14.8;72.8
67345;BME280;54230;52.402;6.276;2023-03-18T22:10:00;101100.0;;;14.8;72.2
67345;BME280;54230;52.402;6.276;2023-03-18T22:15:00;101100.0;;;14.7;71.7
67345;BME280;54230;52.402;6.276;2023-03-18T22:20:00;101090.0;;;14.7;71.1
67345;BME280;54230;52.402;6.276;2023-03-18T22:25:00;101090.0;;;14.6;71.0
67345;BME280;54230;52.402;6.276;2023-03-18T22:30:00;101090.0;;;14.6;70.7
67345;BME280;54230;52.402;6.276;2023-03-18T22:35:00;101090.0;;;14.4;70.7
67345;BME280;54230;52.402;6.276;2023-03-18T22:40:00;101090.0;;;14.4;70.4
67345;BME280;54230;52.402;6.276;2023-03-18T22:45:00;101090.0;;;14.3;70.2
67345;BME280;54230;52.402;6.276;2023-03-18T22:50:00;101080.0;;;14.2;70.4
67345;BME280;54230;52.402;6.276;2023-03-18T22:55:01;101070.0;;;14.3;69.9
67345;BME280;54230;52.402;6.276;2023-03-18T23:00:00;101070.0;;;14.3;70.2
67345;BME280;54230;52.402;6.276;2023-03-18T23:05:00;101070.0;;;14.4;70.5
67345;BME280;54230;52.402;6.276;2023-03-18T23:10:02;101070.0;;;14.5;70.2
67345;BME280;54230;52.402;6.276;2023-03-18T23:15:00;101060.0;;;14.4;70.3
67345;BME280;54230;52.402;6.276;2023-03-18T23:20:00;101070.0;;;14.3;70.3
67345;BME280;54230;52.402;6.276;2023-03-18T23:25:00;101060.0;;;14.3;71.5
67345;BME280;54230;52.402;6.276;2023-03-18T23:30:00;101060.0;;;14.2;71.7
67345;BME280;54230;52.402;6.276;2023-03-18T23:35:00;101060.0;;;14.2;72.1
67345;BME280;54230;52.402;6.276;2023-03-18T23:40:00;101060.0;;;14.1;72.2
67345;BME280;54230;52.402;6.276;2023-03-18T23:45:00;101060.0;;;14.1;72.2
67345;BME280;54230;52.402;6.276;2023-03-18T23:50:00;101080.0;;;14.2;72.2
67345;BME280;54230;52.402;6.276;2023-03-18T23:55:00;101070.0;;;14.2;71.8
